sensor_id;sensor_type;location;lat;lon;timestamp;temperature;humidity
34460;DHT22;20704;51.260;22.558;2023-03-01T00:01:24;-1.10;99.90
34460;DHT22;20704;51.260;22.558;2023-03-01T00:05:29;-0.90;99.90
34460;DHT22;20704;51.260;22.558;2023-03-01T00:07:32;-1.30;99.90
34460;DHT22;20704;51.260;22.558;2023-03-01T00:09:36;-0.80;99.90
34460;DHT22;20704;51.260;22.558;2023-03-01T00:11:39;-1.00;99.90
34460;DHT22;20704;51.260;22.558;2023-03-01T00:13:41;-1.10;99.90
34460;DHT22;20704;51.260;22.558;2023-03-01T00:15:44;-0.90;99.90
34460;DHT22;20704;51.260;22.558;2023-03-01T00:17:46;-1.30;99.90
34460;DHT22;20704;51.260;22.558;2023-03-01T00:25:57;-1.10;99.90
34460;DHT22;20704;51.260;22.558;2023-03-01T00:27:59;-0.80;99.90
34460;DHT22;20704;51.260;22.558;2023-03-01T00:30:01;-1.10;99.90
34460;DHT22;20704;51.260;22.558;2023-03-01T00:32:05;-1.10;99.90
34460;DHT22;20704;51.260;22.558;2023-03-01T00:34:07;-0.90;99.90
34460;DHT22;20704;51.260;22.558;2023-03-01T00:36:11;-1.00;99.90
34460;DHT22;20704;51.260;22.558;2023-03-01T00:38:14;-1.10;99.90
34460;DHT22;20704;51.260;22.558;2023-03-01T00:40:16;-1.10;99.90
34460;DHT22;20704;51.260;22.558;2023-03-01T00:42:18;-1.20;99.90
34460;DHT22;20704;51.260;22.558;2023-03-01T00:44:21;-1.30;99.90
34460;DHT22;20704;51.260;22.558;2023-03-01T00:46:25;-1.20;99.90
34460;DHT22;20704;51.260;22.558;2023-03-01T00:48:28;-1.50;99.90
34460;DHT22;20704;51.260;22.558;2023-03-01T00:50:30;-1.20;99.90
34460;DHT22;20704;51.260;22.558;2023-03-01T00:52:32;-1.20;99.90
34460;DHT22;20704;51.260;22.558;2023-03-01T00:54:34;-1.20;99.90
34460;DHT22;20704;51.260;22.558;2023-03-01T00:56:37;-1.20;99.90
34460;DHT22;20704;51.260;22.558;2023-03-01T00:58:39;-1.30;99.90
34460;DHT22;20704;51.260;22.558;2023-03-01T01:00:41;-1.10;99.90
34460;DHT22;20704;51.260;22.558;2023-03-01T01:02:44;-1.10;99.90
34460;DHT22;20704;51.260;22.558;2023-03-01T01:04:47;-1.10;99.90
34460;DHT22;20704;51.260;22.558;2023-03-01T01:06:49;-1.10;99.90
34460;DHT22;20704;51.260;22.558;2023-03-01T01:08:53;-1.20;99.90
34460;DHT22;20704;51.260;22.558;2023-03-01T01:10:55;-1.10;99.90
34460;DHT22;20704;51.260;22.558;2023-03-01T01:12:57;-1.20;99.90
34460;DHT22;20704;51.260;22.558;2023-03-01T01:15:00;-1.20;99.90
34460;DHT22;20704;51.260;22.558;2023-03-01T01:17:02;-1.20;99.90
34460;DHT22;20704;51.260;22.558;2023-03-01T01:19:05;-1.30;99.90
34460;DHT22;20704;51.260;22.558;2023-03-01T01:21:11;-1.20;99.90
34460;DHT22;20704;51.260;22.558;2023-03-01T01:23:13;-1.40;99.90
34460;DHT22;20704;51.260;22.558;2023-03-01T01:25:16;-1.20;99.90
34460;DHT22;20704;51.260;22.558;2023-03-01T01:27:18;-1.10;99.90
34460;DHT22;20704;51.260;22.558;2023-03-01T01:29:20;-1.20;99.90
34460;DHT22;20704;51.260;22.558;2023-03-01T01:31:23;-1.60;99.90
34460;DHT22;20704;51.260;22.558;2023-03-01T01:33:26;-1.20;99.90
34460;DHT22;20704;51.260;22.558;2023-03-01T01:35:29;-1.30;99.90
34460;DHT22;20704;51.260;22.558;2023-03-01T01:37:31;-1.50;99.90
34460;DHT22;20704;51.260;22.558;2023-03-01T01:39:35;-1.30;99.90
34460;DHT22;20704;51.260;22.558;2023-03-01T01:41:37;-1.30;99.90
34460;DHT22;20704;51.260;22.558;2023-03-01T01:43:48;-1.30;99.90
34460;DHT22;20704;51.260;22.558;2023-03-01T01:46:02;-1.30;99.90
34460;DHT22;20704;51.260;22.558;2023-03-01T01:48:12;-1.30;99.90
34460;DHT22;20704;51.260;22.558;2023-03-01T01:50:17;-1.40;99.90
34460;DHT22;20704;51.260;22.558;2023-03-01T01:52:25;-1.30;99.90
34460;DHT22;20704;51.260;22.558;2023-03-01T01:54:36;-1.40;99.90
34460;DHT22;20704;51.260;22.558;2023-03-01T01:56:42;-0.50;99.90
34460;DHT22;20704;51.260;22.558;2023-03-01T01:58:46;-1.30;99.90
34460;DHT22;20704;51.260;22.558;2023-03-01T02:02:59;-1.30;99.90
34460;DHT22;20704;51.260;22.558;2023-03-01T02:05:24;-1.80;99.90
34460;DHT22;20704;51.260;22.558;2023-03-01T02:07:29;-1.60;99.90
34460;DHT22;20704;51.260;22.558;2023-03-01T02:09:32;-1.60;99.90
34460;DHT22;20704;51.260;22.558;2023-03-01T02:11:36;-1.60;99.90
34460;DHT22;20704;51.260;22.558;2023-03-01T02:13:39;-1.60;99.90
34460;DHT22;20704;51.260;22.558;2023-03-01T02:15:42;-1.70;99.90
34460;DHT22;20704;51.260;22.558;2023-03-01T02:17:46;-1.60;99.90
34460;DHT22;20704;51.260;22.558;2023-03-01T02:22:27;-1.60;99.90
34460;DHT22;20704;51.260;22.558;2023-03-01T02:26:55;-1.80;99.90
34460;DHT22;20704;51.260;22.558;2023-03-01T02:28:58;-1.70;99.90
34460;DHT22;20704;51.260;22.558;2023-03-01T02:31:01;-1.40;99.90
34460;DHT22;20704;51.260;22.558;2023-03-01T02:33:23;-1.80;99.90
34460;DHT22;20704;51.260;22.558;2023-03-01T02:35:25;-1.70;99.90
34460;DHT22;20704;51.260;22.558;2023-03-01T02:37:28;-1.60;99.90
34460;DHT22;20704;51.260;22.558;2023-03-01T02:39:34;-1.60;99.90
34460;DHT22;20704;51.260;22.558;2023-03-01T02:41:42;-1.70;99.90
34460;DHT22;20704;51.260;22.558;2023-03-01T02:43:45;-2.30;99.90
34460;DHT22;20704;51.260;22.558;2023-03-01T02:45:52;-1.60;99.90
34460;DHT22;20704;51.260;22.558;2023-03-01T02:47:55;-1.60;99.90
34460;DHT22;20704;51.260;22.558;2023-03-01T02:49:58;-1.60;99.90
34460;DHT22;20704;51.260;22.558;2023-03-01T02:54:43;-1.70;99.90
34460;DHT22;20704;51.260;22.558;2023-03-01T02:56:47;-1.70;99.90
34460;DHT22;20704;51.260;22.558;2023-03-01T02:58:52;-1.70;99.90
34460;DHT22;20704;51.260;22.558;2023-03-01T03:00:55;-1.80;99.90
34460;DHT22;20704;51.260;22.558;2023-03-01T03:02:58;-1.70;99.90
34460;DHT22;20704;51.260;22.558;2023-03-01T03:05:10;-1.70;99.90
34460;DHT22;20704;51.260;22.558;2023-03-01T03:07:13;-1.70;99.90
34460;DHT22;20704;51.260;22.558;2023-03-01T03:09:17;-1.70;99.90
34460;DHT22;20704;51.260;22.558;2023-03-01T03:11:20;-1.70;99.90
34460;DHT22;20704;51.260;22.558;2023-03-01T03:13:22;-1.80;99.90
34460;DHT22;20704;51.260;22.558;2023-03-01T03:15:31;-1.70;99.90
34460;DHT22;20704;51.260;22.558;2023-03-01T03:17:33;-1.70;99.90
34460;DHT22;20704;51.260;22.558;2023-03-01T03:19:35;-1.80;99.90
34460;DHT22;20704;51.260;22.558;2023-03-01T03:21:38;-1.60;99.90
34460;DHT22;20704;51.260;22.558;2023-03-01T03:23:40;-1.80;99.90
34460;DHT22;20704;51.260;22.558;2023-03-01T03:25:42;-1.70;99.90
34460;DHT22;20704;51.260;22.558;2023-03-01T03:27:46;-1.70;99.90
34460;DHT22;20704;51.260;22.558;2023-03-01T03:29:48;-1.70;99.90
34460;DHT22;20704;51.260;22.558;2023-03-01T03:31:51;-1.70;99.90
34460;DHT22;20704;51.260;22.558;2023-03-01T03:33:53;-1.70;99.90
34460;DHT22;20704;51.260;22.558;2023-03-01T03:35:56;-1.70;99.90
34460;DHT22;20704;51.260;22.558;2023-03-01T03:38:00;-1.70;99.90
34460;DHT22;20704;51.260;22.558;2023-03-01T03:40:05;-1.70;99.90
34460;DHT22;20704;51.260;22.558;2023-03-01T03:42:18;-1.60;99.90
34460;DHT22;20704;51.260;22.558;2023-03-01T03:44:20;-1.70;99.90
34460;DHT22;20704;51.260;22.558;2023-03-01T03:46:23;-1.80;99.90
34460;DHT22;20704;51.260;22.558;2023-03-01T03:48:26;-1.70;99.90
34460;DHT22;20704;51.260;22.558;2023-03-01T03:50:29;-1.80;99.90
34460;DHT22;20704;51.260;22.558;2023-03-01T03:52:31;-1.80;99.90
34460;DHT22;20704;51.260;22.558;2023-03-01T03:54:33;-1.80;99.90
34460;DHT22;20704;51.260;22.558;2023-03-01T03:56:35;-1.80;99.90
34460;DHT22;20704;51.260;22.558;2023-03-01T03:58:40;-1.80;99.90
34460;DHT22;20704;51.260;22.558;2023-03-01T04:00:43;-1.70;99.90
34460;DHT22;20704;51.260;22.558;2023-03-01T04:02:50;-1.70;99.90
34460;DHT22;20704;51.260;22.558;2023-03-01T04:04:52;-1.70;99.90
34460;DHT22;20704;51.260;22.558;2023-03-01T04:06:55;-1.70;99.90
34460;DHT22;20704;51.260;22.558;2023-03-01T04:08:57;-1.20;99.90
34460;DHT22;20704;51.260;22.558;2023-03-01T04:11:03;-1.70;99.90
34460;DHT22;20704;51.260;22.558;2023-03-01T04:13:25;-1.70;99.90
34460;DHT22;20704;51.260;22.558;2023-03-01T04:15:28;-1.80;99.90
34460;DHT22;20704;51.260;22.558;2023-03-01T04:17:30;-1.90;99.90
34460;DHT22;20704;51.260;22.558;2023-03-01T04:19:33;-1.80;99.90
34460;DHT22;20704;51.260;22.558;2023-03-01T04:21:38;-1.70;99.90
34460;DHT22;20704;51.260;22.558;2023-03-01T04:23:40;-1.80;99.90
34460;DHT22;20704;51.260;22.558;2023-03-01T04:25:46;-1.80;99.90
34460;DHT22;20704;51.260;22.558;2023-03-01T04:27:55;-1.70;99.90
34460;DHT22;20704;51.260;22.558;2023-03-01T04:29:58;-1.70;99.90
34460;DHT22;20704;51.260;22.558;2023-03-01T04:32:00;-1.80;99.90
34460;DHT22;20704;51.260;22.558;2023-03-01T04:34:02;-1.80;99.90
34460;DHT22;20704;51.260;22.558;2023-03-01T04:36:05;-1.90;99.90
34460;DHT22;20704;51.260;22.558;2023-03-01T04:38:10;-1.70;99.90
34460;DHT22;20704;51.260;22.558;2023-03-01T04:40:13;-1.80;99.90
34460;DHT22;20704;51.260;22.558;2023-03-01T04:42:18;-1.80;99.90
34460;DHT22;20704;51.260;22.558;2023-03-01T04:44:21;-1.70;99.90
34460;DHT22;20704;51.260;22.558;2023-03-01T04:48:27;-1.70;99.90
34460;DHT22;20704;51.260;22.558;2023-03-01T04:50:30;-1.80;99.90
34460;DHT22;20704;51.260;22.558;2023-03-01T04:52:32;-1.80;99.90
34460;DHT22;20704;51.260;22.558;2023-03-01T04:54:35;-1.70;99.90
34460;DHT22;20704;51.260;22.558;2023-03-01T04:56:38;-1.80;99.90
34460;DHT22;20704;51.260;22.558;2023-03-01T04:58:43;-1.80;99.90
34460;DHT22;20704;51.260;22.558;2023-03-01T05:00:46;-1.70;99.90
34460;DHT22;20704;51.260;22.558;2023-03-01T05:02:54;-1.60;99.90
34460;DHT22;20704;51.260;22.558;2023-03-01T05:04:57;-1.80;99.90
34460;DHT22;20704;51.260;22.558;2023-03-01T05:06:59;-1.90;99.90
34460;DHT22;20704;51.260;22.558;2023-03-01T05:11:04;-1.70;99.90
34460;DHT22;20704;51.260;22.558;2023-03-01T05:13:07;-1.60;99.90
34460;DHT22;20704;51.260;22.558;2023-03-01T05:15:10;-1.50;99.90
34460;DHT22;20704;51.260;22.558;2023-03-01T05:17:12;-1.70;99.90
34460;DHT22;20704;51.260;22.558;2023-03-01T05:19:14;-1.60;99.90
34460;DHT22;20704;51.260;22.558;2023-03-01T05:21:20;-1.60;99.90
34460;DHT22;20704;51.260;22.558;2023-03-01T05:23:23;-1.50;99.90
34460;DHT22;20704;51.260;22.558;2023-03-01T05:25:27;-1.50;99.90
34460;DHT22;20704;51.260;22.558;2023-03-01T05:27:35;-1.50;99.90
34460;DHT22;20704;51.260;22.558;2023-03-01T05:29:37;-1.50;99.90
34460;DHT22;20704;51.260;22.558;2023-03-01T05:31:41;-1.30;99.90
34460;DHT22;20704;51.260;22.558;2023-03-01T05:33:43;-1.30;99.90
34460;DHT22;20704;51.260;22.558;2023-03-01T05:35:46;-1.30;99.90
34460;DHT22;20704;51.260;22.558;2023-03-01T05:37:50;-1.20;99.90
34460;DHT22;20704;51.260;22.558;2023-03-01T05:39:53;-1.00;99.90
34460;DHT22;20704;51.260;22.558;2023-03-01T05:41:57;-1.10;99.90
34460;DHT22;20704;51.260;22.558;2023-03-01T05:44:00;-0.70;99.90
34460;DHT22;20704;51.260;22.558;2023-03-01T05:46:02;-1.00;99.90
34460;DHT22;20704;51.260;22.558;2023-03-01T05:48:05;-0.70;99.90
34460;DHT22;20704;51.260;22.558;2023-03-01T05:50:09;0.10;99.90
34460;DHT22;20704;51.260;22.558;2023-03-01T05:52:11;-0.40;99.90
34460;DHT22;20704;51.260;22.558;2023-03-01T05:54:14;-0.40;99.90
34460;DHT22;20704;51.260;22.558;2023-03-01T05:56:16;-0.20;99.90
34460;DHT22;20704;51.260;22.558;2023-03-01T05:58:19;0.00;99.90
34460;DHT22;20704;51.260;22.558;2023-03-01T06:00:22;0.20;99.90
34460;DHT22;20704;51.260;22.558;2023-03-01T06:02:24;0.60;99.90
34460;DHT22;20704;51.260;22.558;2023-03-01T06:04:26;1.00;99.90
34460;DHT22;20704;51.260;22.558;2023-03-01T06:06:29;1.40;99.90
34460;DHT22;20704;51.260;22.558;2023-03-01T06:08:32;1.80;99.90
34460;DHT22;20704;51.260;22.558;2023-03-01T06:10:34;2.40;99.90
34460;DHT22;20704;51.260;22.558;2023-03-01T06:12:38;2.90;98.40
34460;DHT22;20704;51.260;22.558;2023-03-01T06:14:40;3.40;95.40
34460;DHT22;20704;51.260;22.558;2023-03-01T06:16:42;3.90;92.40
34460;DHT22;20704;51.260;22.558;2023-03-01T06:18:45;4.50;92.70
34460;DHT22;20704;51.260;22.558;2023-03-01T06:20:53;4.80;89.90
34460;DHT22;20704;51.260;22.558;2023-03-01T06:22:56;5.10;86.70
34460;DHT22;20704;51.260;22.558;2023-03-01T06:24:59;5.50;83.30
34460;DHT22;20704;51.260;22.558;2023-03-01T06:27:01;5.70;81.20
34460;DHT22;20704;51.260;22.558;2023-03-01T06:29:06;6.20;79.20
34460;DHT22;20704;51.260;22.558;2023-03-01T06:31:11;8.30;78.20
34460;DHT22;20704;51.260;22.558;2023-03-01T06:33:13;7.20;73.70
34460;DHT22;20704;51.260;22.558;2023-03-01T06:35:18;7.70;72.00
34460;DHT22;20704;51.260;22.558;2023-03-01T06:37:21;8.40;70.40
34460;DHT22;20704;51.260;22.558;2023-03-01T06:39:23;9.20;68.10
34460;DHT22;20704;51.260;22.558;2023-03-01T06:41:25;10.00;65.30
34460;DHT22;20704;51.260;22.558;2023-03-01T06:43:28;10.50;62.50
34460;DHT22;20704;51.260;22.558;2023-03-01T06:45:30;11.40;61.50
34460;DHT22;20704;51.260;22.558;2023-03-01T06:47:33;12.10;58.80
34460;DHT22;20704;51.260;22.558;2023-03-01T06:49:38;13.00;56.70
34460;DHT22;20704;51.260;22.558;2023-03-01T06:51:40;13.90;54.00
34460;DHT22;20704;51.260;22.558;2023-03-01T06:53:42;14.80;51.60
34460;DHT22;20704;51.260;22.558;2023-03-01T06:55:45;15.60;51.60
34460;DHT22;20704;51.260;22.558;2023-03-01T06:57:47;16.20;48.70
34460;DHT22;20704;51.260;22.558;2023-03-01T06:59:49;17.10;47.70
34460;DHT22;20704;51.260;22.558;2023-03-01T07:01:52;17.80;45.90
34460;DHT22;20704;51.260;22.558;2023-03-01T07:05:57;18.90;42.70
34460;DHT22;20704;51.260;22.558;2023-03-01T07:07:59;19.40;41.90
34460;DHT22;20704;51.260;22.558;2023-03-01T07:10:01;19.90;41.60
34460;DHT22;20704;51.260;22.558;2023-03-01T07:14:06;20.80;42.70
34460;DHT22;20704;51.260;22.558;2023-03-01T07:16:09;21.20;43.00
34460;DHT22;20704;51.260;22.558;2023-03-01T07:20:14;21.60;37.00
34460;DHT22;20704;51.260;22.558;2023-03-01T07:22:17;21.70;41.90
34460;DHT22;20704;51.260;22.558;2023-03-01T07:24:19;21.80;42.00
34460;DHT22;20704;51.260;22.558;2023-03-01T07:26:21;21.50;36.40
34460;DHT22;20704;51.260;22.558;2023-03-01T07:28:27;21.10;36.60
34460;DHT22;20704;51.260;22.558;2023-03-01T07:30:29;20.30;37.90
34460;DHT22;20704;51.260;22.558;2023-03-01T07:32:31;19.70;39.00
34460;DHT22;20704;51.260;22.558;2023-03-01T07:34:34;18.80;40.00
34460;DHT22;20704;51.260;22.558;2023-03-01T07:36:37;18.30;40.80
34460;DHT22;20704;51.260;22.558;2023-03-01T07:38:39;17.70;41.40
34460;DHT22;20704;51.260;22.558;2023-03-01T07:40:41;17.30;42.70
34460;DHT22;20704;51.260;22.558;2023-03-01T07:42:43;16.70;43.10
34460;DHT22;20704;51.260;22.558;2023-03-01T07:44:46;16.80;43.70
34460;DHT22;20704;51.260;22.558;2023-03-01T07:46:48;16.40;43.50
34460;DHT22;20704;51.260;22.558;2023-03-01T07:48:50;16.10;44.10
34460;DHT22;20704;51.260;22.558;2023-03-01T07:50:52;16.10;44.60
34460;DHT22;20704;51.260;22.558;2023-03-01T07:52:55;15.80;44.60
34460;DHT22;20704;51.260;22.558;2023-03-01T07:54:57;15.10;45.20
34460;DHT22;20704;51.260;22.558;2023-03-01T07:57:00;15.10;46.10
34460;DHT22;20704;51.260;22.558;2023-03-01T07:59:02;15.20;46.40
34460;DHT22;20704;51.260;22.558;2023-03-01T08:01:06;14.80;46.10
34460;DHT22;20704;51.260;22.558;2023-03-01T08:07:14;14.30;46.40
34460;DHT22;20704;51.260;22.558;2023-03-01T08:13:22;14.60;46.90
34460;DHT22;20704;51.260;22.558;2023-03-01T08:19:30;14.50;47.10
34460;DHT22;20704;51.260;22.558;2023-03-01T08:21:33;13.40;47.00
34460;DHT22;20704;51.260;22.558;2023-03-01T08:23:36;14.50;47.70
34460;DHT22;20704;51.260;22.558;2023-03-01T08:25:39;14.40;47.40
34460;DHT22;20704;51.260;22.558;2023-03-01T08:27:41;14.40;47.60
34460;DHT22;20704;51.260;22.558;2023-03-01T08:31:47;14.20;46.80
34460;DHT22;20704;51.260;22.558;2023-03-01T08:33:52;14.10;47.80
34460;DHT22;20704;51.260;22.558;2023-03-01T08:36:07;13.60;54.50
34460;DHT22;20704;51.260;22.558;2023-03-01T08:40:12;13.70;47.80
34460;DHT22;20704;51.260;22.558;2023-03-01T08:44:20;13.70;48.30
34460;DHT22;20704;51.260;22.558;2023-03-01T08:46:23;13.80;48.70
34460;DHT22;20704;51.260;22.558;2023-03-01T08:48:27;13.70;48.30
34460;DHT22;20704;51.260;22.558;2023-03-01T08:50:32;13.70;48.80
34460;DHT22;20704;51.260;22.558;2023-03-01T08:52:34;13.90;49.20
34460;DHT22;20704;51.260;22.558;2023-03-01T08:54:36;13.80;48.90
34460;DHT22;20704;51.260;22.558;2023-03-01T08:56:39;13.80;48.90
34460;DHT22;20704;51.260;22.558;2023-03-01T08:58:44;13.60;48.80
34460;DHT22;20704;51.260;22.558;2023-03-01T09:00:47;13.70;48.90
34460;DHT22;20704;51.260;22.558;2023-03-01T09:02:49;13.70;49.00
34460;DHT22;20704;51.260;22.558;2023-03-01T09:04:51;13.70;49.20
34460;DHT22;20704;51.260;22.558;2023-03-01T09:06:54;13.60;49.30
34460;DHT22;20704;51.260;22.558;2023-03-01T09:08:56;13.50;50.00
34460;DHT22;20704;51.260;22.558;2023-03-01T09:11:02;13.50;49.80
34460;DHT22;20704;51.260;22.558;2023-03-01T09:13:04;13.60;50.20
34460;DHT22;20704;51.260;22.558;2023-03-01T09:15:07;13.40;49.50
34460;DHT22;20704;51.260;22.558;2023-03-01T09:17:09;13.70;49.70
34460;DHT22;20704;51.260;22.558;2023-03-01T09:19:12;13.70;49.50
34460;DHT22;20704;51.260;22.558;2023-03-01T09:21:16;13.40;49.80
34460;DHT22;20704;51.260;22.558;2023-03-01T09:23:26;13.50;49.40
34460;DHT22;20704;51.260;22.558;2023-03-01T09:25:28;13.30;49.80
34460;DHT22;20704;51.260;22.558;2023-03-01T09:27:30;13.10;49.20
34460;DHT22;20704;51.260;22.558;2023-03-01T09:29:32;13.10;49.70
34460;DHT22;20704;51.260;22.558;2023-03-01T09:39:52;13.00;49.50
34460;DHT22;20704;51.260;22.558;2023-03-01T09:44:00;12.70;49.70
34460;DHT22;20704;51.260;22.558;2023-03-01T09:46:09;12.80;50.60
34460;DHT22;20704;51.260;22.558;2023-03-01T09:48:24;10.90;49.60
34460;DHT22;20704;51.260;22.558;2023-03-01T09:50:33;12.60;50.70
34460;DHT22;20704;51.260;22.558;2023-03-01T09:55:12;12.80;50.90
34460;DHT22;20704;51.260;22.558;2023-03-01T09:59:39;12.80;50.70
34460;DHT22;20704;51.260;22.558;2023-03-01T10:02:05;12.80;50.80
34460;DHT22;20704;51.260;22.558;2023-03-01T10:04:26;12.60;50.40
34460;DHT22;20704;51.260;22.558;2023-03-01T10:06:29;12.70;50.70
34460;DHT22;20704;51.260;22.558;2023-03-01T10:08:58;12.60;50.60
34460;DHT22;20704;51.260;22.558;2023-03-01T10:11:04;12.70;51.30
34460;DHT22;20704;51.260;22.558;2023-03-01T10:15:50;12.70;50.70
34460;DHT22;20704;51.260;22.558;2023-03-01T10:18:04;12.60;50.50
34460;DHT22;20704;51.260;22.558;2023-03-01T10:20:26;12.40;50.80
34460;DHT22;20704;51.260;22.558;2023-03-01T10:22:29;12.60;51.20
34460;DHT22;20704;51.260;22.558;2023-03-01T10:24:35;12.40;51.30
34460;DHT22;20704;51.260;22.558;2023-03-01T10:30:58;12.30;50.80
34460;DHT22;20704;51.260;22.558;2023-03-01T10:33:13;12.30;51.30
34460;DHT22;20704;51.260;22.558;2023-03-01T10:35:31;12.10;65.70
34460;DHT22;20704;51.260;22.558;2023-03-01T10:37:35;12.10;52.10
34460;DHT22;20704;51.260;22.558;2023-03-01T10:40:08;11.70;64.90
34460;DHT22;20704;51.260;22.558;2023-03-01T10:42:48;11.50;56.10
34460;DHT22;20704;51.260;22.558;2023-03-01T10:44:51;11.90;52.50
34460;DHT22;20704;51.260;22.558;2023-03-01T10:47:00;11.90;52.60
34460;DHT22;20704;51.260;22.558;2023-03-01T10:49:20;12.30;56.00
34460;DHT22;20704;51.260;22.558;2023-03-01T10:51:23;11.60;58.60
34460;DHT22;20704;51.260;22.558;2023-03-01T10:55:36;11.90;53.10
34460;DHT22;20704;51.260;22.558;2023-03-01T10:57:39;12.00;53.40
34460;DHT22;20704;51.260;22.558;2023-03-01T10:59:44;11.80;66.10
34460;DHT22;20704;51.260;22.558;2023-03-01T11:04:12;11.50;53.00
34460;DHT22;20704;51.260;22.558;2023-03-01T11:06:22;11.70;53.10
34460;DHT22;20704;51.260;22.558;2023-03-01T11:23:18;11.30;53.80
34460;DHT22;20704;51.260;22.558;2023-03-01T11:25:26;11.30;53.30
34460;DHT22;20704;51.260;22.558;2023-03-01T11:27:32;11.30;53.20
34460;DHT22;20704;51.260;22.558;2023-03-01T11:31:50;11.40;53.00
34460;DHT22;20704;51.260;22.558;2023-03-01T11:34:13;11.30;53.00
34460;DHT22;20704;51.260;22.558;2023-03-01T11:37:02;11.70;63.70
34460;DHT22;20704;51.260;22.558;2023-03-01T11:39:04;11.10;53.50
34460;DHT22;20704;51.260;22.558;2023-03-01T11:41:16;11.00;53.50
34460;DHT22;20704;51.260;22.558;2023-03-01T11:50:51;10.50;54.40
34460;DHT22;20704;51.260;22.558;2023-03-01T11:57:47;10.30;55.00
34460;DHT22;20704;51.260;22.558;2023-03-01T12:02:34;10.40;55.10
34460;DHT22;20704;51.260;22.558;2023-03-01T12:06:50;9.80;55.50
34460;DHT22;20704;51.260;22.558;2023-03-01T12:11:19;9.60;56.40
34460;DHT22;20704;51.260;22.558;2023-03-01T12:16:20;9.60;57.70
34460;DHT22;20704;51.260;22.558;2023-03-01T12:23:34;9.70;58.30
34460;DHT22;20704;51.260;22.558;2023-03-01T12:39:51;9.40;58.70
34460;DHT22;20704;51.260;22.558;2023-03-01T12:46:39;9.00;60.00
34460;DHT22;20704;51.260;22.558;2023-03-01T12:51:01;9.00;60.30
34460;DHT22;20704;51.260;22.558;2023-03-01T12:53:04;9.00;60.60
34460;DHT22;20704;51.260;22.558;2023-03-01T12:58:23;9.00;60.30
34460;DHT22;20704;51.260;22.558;2023-03-01T13:01:00;9.10;60.40
34460;DHT22;20704;51.260;22.558;2023-03-01T13:10:26;9.00;61.10
34460;DHT22;20704;51.260;22.558;2023-03-01T13:12:51;9.00;61.40
34460;DHT22;20704;51.260;22.558;2023-03-01T13:14:54;9.00;61.30
34460;DHT22;20704;51.260;22.558;2023-03-01T13:16:57;8.90;61.20
34460;DHT22;20704;51.260;22.558;2023-03-01T13:19:26;8.90;61.20
34460;DHT22;20704;51.260;22.558;2023-03-01T13:21:31;8.80;61.30
34460;DHT22;20704;51.260;22.558;2023-03-01T13:23:39;8.70;61.60
34460;DHT22;20704;51.260;22.558;2023-03-01T13:30:39;8.70;61.80
34460;DHT22;20704;51.260;22.558;2023-03-01T13:32:42;8.70;62.20
34460;DHT22;20704;51.260;22.558;2023-03-01T13:37:21;8.60;62.40
34460;DHT22;20704;51.260;22.558;2023-03-01T13:39:32;8.60;62.70
34460;DHT22;20704;51.260;22.558;2023-03-01T13:43:46;8.60;62.60
34460;DHT22;20704;51.260;22.558;2023-03-01T13:45:49;8.70;62.70
34460;DHT22;20704;51.260;22.558;2023-03-01T13:47:55;8.70;62.60
34460;DHT22;20704;51.260;22.558;2023-03-01T13:50:01;8.60;62.40
34460;DHT22;20704;51.260;22.558;2023-03-01T13:52:05;8.70;62.90
34460;DHT22;20704;51.260;22.558;2023-03-01T13:54:12;8.60;62.80
34460;DHT22;20704;51.260;22.558;2023-03-01T13:56:28;8.80;63.00
34460;DHT22;20704;51.260;22.558;2023-03-01T13:58:53;8.70;62.50
34460;DHT22;20704;51.260;22.558;2023-03-01T14:01:07;8.60;62.60
34460;DHT22;20704;51.260;22.558;2023-03-01T14:03:18;8.70;62.90
34460;DHT22;20704;51.260;22.558;2023-03-01T14:05:20;8.60;62.60
34460;DHT22;20704;51.260;22.558;2023-03-01T14:07:24;8.50;62.80
34460;DHT22;20704;51.260;22.558;2023-03-01T14:09:28;8.50;63.10
34460;DHT22;20704;51.260;22.558;2023-03-01T14:12:06;8.50;63.10
34460;DHT22;20704;51.260;22.558;2023-03-01T14:14:23;8.50;63.50
34460;DHT22;20704;51.260;22.558;2023-03-01T14:19:17;8.50;63.60
34460;DHT22;20704;51.260;22.558;2023-03-01T14:21:33;8.60;63.50
34460;DHT22;20704;51.260;22.558;2023-03-01T14:23:38;8.50;63.90
34460;DHT22;20704;51.260;22.558;2023-03-01T14:25:49;8.50;64.40
34460;DHT22;20704;51.260;22.558;2023-03-01T14:30:36;8.30;64.80
34460;DHT22;20704;51.260;22.558;2023-03-01T14:32:40;8.30;64.90
34460;DHT22;20704;51.260;22.558;2023-03-01T14:34:44;8.30;65.60
34460;DHT22;20704;51.260;22.558;2023-03-01T14:36:48;8.10;65.70
34460;DHT22;20704;51.260;22.558;2023-03-01T14:38:50;8.10;66.00
34460;DHT22;20704;51.260;22.558;2023-03-01T14:40:54;8.00;66.10
34460;DHT22;20704;51.260;22.558;2023-03-01T14:43:08;7.90;66.70
34460;DHT22;20704;51.260;22.558;2023-03-01T14:45:12;9.20;68.00
34460;DHT22;20704;51.260;22.558;2023-03-01T14:47:27;7.80;67.20
34460;DHT22;20704;51.260;22.558;2023-03-01T14:49:31;7.60;66.50
34460;DHT22;20704;51.260;22.558;2023-03-01T14:51:38;7.40;66.50
34460;DHT22;20704;51.260;22.558;2023-03-01T14:53:41;7.40;67.10
34460;DHT22;20704;51.260;22.558;2023-03-01T14:55:55;7.40;67.60
34460;DHT22;20704;51.260;22.558;2023-03-01T14:57:58;7.20;67.90
34460;DHT22;20704;51.260;22.558;2023-03-01T15:00:06;7.20;68.10
34460;DHT22;20704;51.260;22.558;2023-03-01T15:02:15;7.10;68.40
34460;DHT22;20704;51.260;22.558;2023-03-01T15:04:19;7.10;68.70
34460;DHT22;20704;51.260;22.558;2023-03-01T15:06:23;7.00;68.80
34460;DHT22;20704;51.260;22.558;2023-03-01T15:08:26;7.00;68.90
34460;DHT22;20704;51.260;22.558;2023-03-01T15:10:36;6.90;69.00
34460;DHT22;20704;51.260;22.558;2023-03-01T15:12:41;6.80;69.30
34460;DHT22;20704;51.260;22.558;2023-03-01T15:14:44;6.80;69.60
34460;DHT22;20704;51.260;22.558;2023-03-01T15:17:04;6.70;69.80
34460;DHT22;20704;51.260;22.558;2023-03-01T15:19:18;6.70;70.40
34460;DHT22;20704;51.260;22.558;2023-03-01T15:21:25;6.60;70.50
34460;DHT22;20704;51.260;22.558;2023-03-01T15:23:30;6.60;70.70
34460;DHT22;20704;51.260;22.558;2023-03-01T15:25:33;6.50;71.20
34460;DHT22;20704;51.260;22.558;2023-03-01T15:27:36;6.50;71.10
34460;DHT22;20704;51.260;22.558;2023-03-01T15:29:38;6.40;70.90
34460;DHT22;20704;51.260;22.558;2023-03-01T15:31:43;6.40;71.40
34460;DHT22;20704;51.260;22.558;2023-03-01T15:33:45;6.40;71.80
34460;DHT22;20704;51.260;22.558;2023-03-01T15:35:51;6.30;71.90
34460;DHT22;20704;51.260;22.558;2023-03-01T15:37:55;6.30;72.10
34460;DHT22;20704;51.260;22.558;2023-03-01T15:40:02;6.20;72.20
34460;DHT22;20704;51.260;22.558;2023-03-01T15:42:13;6.20;72.30
34460;DHT22;20704;51.260;22.558;2023-03-01T15:44:32;6.20;72.50
34460;DHT22;20704;51.260;22.558;2023-03-01T15:46:47;6.10;72.90
34460;DHT22;20704;51.260;22.558;2023-03-01T15:48:58;6.10;73.50